Terminal Aerodrome Forecast
Issued by NWS

Home | Current Version | Previous Version | Text Only | Print | Product List | Glossary On
Versions: 1 2 3 4 5 6 7 8 9 10 11 12 13 14 15 16 17
525
FTUS42 KMLB 250543
TAFTIX
TAF
KTIX 250543Z 2506/2606 21010KT P6SM VCSH SCT025 SCT060 OVC120
     FM251400 24015G22KT P6SM SCT040 BKN060 OVC120
     FM251800 27013G20KT P6SM FEW050 SCT120
     FM260000 26007KT P6SM SKC
      AMD NOT SKED TIL 251100=

USA.gov is the U.S. government's official web portal to all federal, state and local government web resources and services.